Disclaimer

Please do not use the information listed here in-flight or in-navigation, as they are not provided to us by the airports but are provided by volunteers, so they might be outdated.

Search


Regions


Airport information page

Radio informations:
Tower (TWR) - 133.0 MHz
Approach (APP) - 123.675 MHz

Airport informations:
Latitude: 49° 56' 22.75" N
Longitude: 015° 22' 54.51" E
Elevation: 794 feet - 242 meters
Operating hours: 24 hour operations
Operating agency: Military
Timezone: UTC+1(+2DT)
Fuel: Jet fuel avaiable but type is unknown.

Runway information:
14/32 - 7875 x 197 feet< - >2400 x 60 meters

Recent METARs:
LKCV 170700Z 25003KT 7000 NSC M04/M04 Q1034 NOSIG RMK WHT WHT
LKCV 170800Z VRB01KT 7000 NSC M01/M02 Q1034 NOSIG
LKCV 170800Z VRB01KT 7000 NSC M01/M02 Q1034 NOSIG RMK WHT WHT

Airport on the map: